createdAt,value
2022-09-10T00:01:00.240Z,16.04
2022-09-10T00:03:27.217Z,16.02
2022-09-10T00:05:53.761Z,15.99
2022-09-10T00:08:20.164Z,15.98
2022-09-10T00:10:47.772Z,15.93
2022-09-10T00:13:15.579Z,15.95
2022-09-10T00:15:42.932Z,15.86
2022-09-10T00:18:10.338Z,15.84
2022-09-10T00:20:43.097Z,15.79
2022-09-10T00:23:10.201Z,15.88
2022-09-10T00:25:36.537Z,15.92
2022-09-10T00:28:02.846Z,15.94
2022-09-10T00:30:29.821Z,15.94
2022-09-10T00:32:56.113Z,15.90
2022-09-10T00:35:22.540Z,15.86
2022-09-10T00:37:48.856Z,15.88
2022-09-10T00:40:15.188Z,15.87
2022-09-10T00:42:44.548Z,15.80
2022-09-10T00:45:37.984Z,15.80
2022-09-10T00:48:07.082Z,15.85
2022-09-10T00:50:35.944Z,15.83
2022-09-10T00:53:04.303Z,15.65
2022-09-10T00:55:31.562Z,15.61
2022-09-10T00:58:00.472Z,15.56
2022-09-10T01:00:26.806Z,15.57
2022-09-10T01:02:53.501Z,15.53
2022-09-10T01:05:19.988Z,15.57
2022-09-10T01:07:46.414Z,15.61
2022-09-10T01:10:18.089Z,15.67
2022-09-10T01:13:03.240Z,15.68
2022-09-10T01:15:49.072Z,15.72
2022-09-10T01:18:43.453Z,15.74
2022-09-10T01:21:19.301Z,15.72
2022-09-10T01:23:49.481Z,15.80
2022-09-10T01:26:34.597Z,15.82
2022-09-10T01:29:15.925Z,15.84
2022-09-10T01:31:49.255Z,15.79
2022-09-10T01:34:21.823Z,15.82
2022-09-10T01:36:50.324Z,15.75
2022-09-10T01:39:18.630Z,15.73
2022-09-10T01:41:46.191Z,15.75
2022-09-10T01:44:31.398Z,15.71
2022-09-10T01:47:03.208Z,15.82
2022-09-10T01:49:37.868Z,15.71
2022-09-10T01:52:13.572Z,15.73
2022-09-10T01:54:39.847Z,15.73
2022-09-10T01:57:06.650Z,15.72
2022-09-10T01:59:38.534Z,15.70
2022-09-10T02:02:13.237Z,15.68
2022-09-10T02:04:40.698Z,15.66
2022-09-10T02:07:08.059Z,15.70
2022-09-10T02:09:35.493Z,15.68
2022-09-10T02:12:02.233Z,15.64
2022-09-10T02:14:51.503Z,15.73
2022-09-10T02:17:21.932Z,15.74
2022-09-10T02:19:51.558Z,15.65
2022-09-10T02:22:18.515Z,15.66
2022-09-10T02:24:45.354Z,15.61
2022-09-10T02:27:12.553Z,15.67
2022-09-10T02:29:39.751Z,15.65
2022-09-10T02:32:06.973Z,15.68
2022-09-10T02:34:34.774Z,15.57
2022-09-10T02:37:02.496Z,15.57
2022-09-10T02:39:29.600Z,15.53
2022-09-10T02:41:56.956Z,15.59
2022-09-10T02:44:24.940Z,15.72
2022-09-10T02:46:51.285Z,15.67
2022-09-10T02:49:18.005Z,15.65
2022-09-10T02:51:45.072Z,15.67
2022-09-10T02:54:11.430Z,15.65
2022-09-10T02:56:38.023Z,15.67
2022-09-10T02:59:04.458Z,15.63
2022-09-10T03:01:31.386Z,15.58
2022-09-10T03:04:01.289Z,15.54
2022-09-10T03:06:29.280Z,15.54
2022-09-10T03:08:55.634Z,15.58
2022-09-10T03:11:23.892Z,15.53
2022-09-10T03:13:50.720Z,15.57
2022-09-10T03:16:18.459Z,15.50
2022-09-10T03:18:45.348Z,15.61
2022-09-10T03:21:20.093Z,15.57
2022-09-10T03:23:48.333Z,15.54
2022-09-10T03:26:20.439Z,15.57
2022-09-10T03:28:47.812Z,15.61
2022-09-10T03:31:18.133Z,15.51
2022-09-10T03:33:47.237Z,15.55
2022-09-10T03:36:14.378Z,15.53
2022-09-10T03:38:42.551Z,15.51
2022-09-10T03:41:09.190Z,15.50
2022-09-10T03:43:35.494Z,15.51
2022-09-10T03:46:06.203Z,15.52
2022-09-10T03:48:35.959Z,15.58
2022-09-10T03:51:02.705Z,15.54
2022-09-10T03:53:29.437Z,15.59
2022-09-10T03:55:56.270Z,15.52
2022-09-10T03:58:22.613Z,15.54
2022-09-10T04:00:49.223Z,15.52
2022-09-10T04:03:17.191Z,15.42
2022-09-10T04:05:46.552Z,15.46
2022-09-10T04:08:14.024Z,15.49
2022-09-10T04:10:41.649Z,15.56
2022-09-10T04:13:08.025Z,15.55
2022-09-10T04:15:35.757Z,15.57
2022-09-10T04:18:03.929Z,15.68
2022-09-10T04:20:30.426Z,15.66
2022-09-10T04:23:06.269Z,15.62
2022-09-10T04:25:36.481Z,15.66
2022-09-10T04:28:03.524Z,15.71
2022-09-10T04:30:31.244Z,15.70
2022-09-10T04:32:57.717Z,15.70
2022-09-10T04:35:24.171Z,15.70
2022-09-10T04:37:50.532Z,15.69
2022-09-10T04:40:17.049Z,15.69
2022-09-10T04:42:43.465Z,15.67
2022-09-10T04:45:09.844Z,15.69
2022-09-10T04:47:36.220Z,15.72
2022-09-10T04:50:03.448Z,15.73
2022-09-10T04:52:29.877Z,15.63
2022-09-10T04:54:56.374Z,15.63
2022-09-10T04:57:23.594Z,15.58
2022-09-10T04:59:49.982Z,15.58
2022-09-10T05:02:16.369Z,15.62
2022-09-10T05:04:42.691Z,15.65
2022-09-10T05:07:09.028Z,15.62
2022-09-10T05:09:36.050Z,15.59
2022-09-10T05:12:04.065Z,15.61
2022-09-10T05:14:30.553Z,15.65
2022-09-10T05:16:57.525Z,15.73
2022-09-10T05:19:23.827Z,15.73
2022-09-10T05:21:58.622Z,15.72
2022-09-10T05:24:25.121Z,15.66
2022-09-10T05:26:51.457Z,15.68
2022-09-10T05:29:18.605Z,15.68
2022-09-10T05:31:45.124Z,15.72
2022-09-10T05:34:12.873Z,15.72
2022-09-10T05:36:41.400Z,15.64
2022-09-10T05:39:07.745Z,15.65
2022-09-10T05:41:37.601Z,15.58
2022-09-10T05:44:04.093Z,15.71
2022-09-10T05:46:30.860Z,15.73
2022-09-10T05:49:01.344Z,15.72
2022-09-10T05:51:29.801Z,15.69
2022-09-10T05:54:00.444Z,15.70
2022-09-10T05:56:31.564Z,15.78
2022-09-10T05:58:58.153Z,15.73
2022-09-10T06:01:25.332Z,15.77
2022-09-10T06:03:52.021Z,15.72
2022-09-10T06:06:19.507Z,15.77
2022-09-10T06:08:55.905Z,15.79
2022-09-10T06:11:34.139Z,15.78
2022-09-10T06:14:00.432Z,15.74
2022-09-10T06:16:27.653Z,15.73
2022-09-10T06:18:55.050Z,15.73
2022-09-10T06:21:26.144Z,15.78
2022-09-10T06:23:54.624Z,15.72
2022-09-10T06:26:22.641Z,15.74
2022-09-10T06:28:52.790Z,15.77
2022-09-10T06:31:19.720Z,15.79
2022-09-10T06:33:48.792Z,15.84
2022-09-10T06:36:18.917Z,15.91
2022-09-10T06:38:45.545Z,15.88
2022-09-10T06:41:14.175Z,15.91
2022-09-10T06:43:47.435Z,15.94
2022-09-10T06:47:16.028Z,16.01
2022-09-10T06:49:23.071Z,16.06
2022-09-10T06:51:53.308Z,16.05
2022-09-10T06:54:19.591Z,16.05
2022-09-10T06:56:48.772Z,16.06
2022-09-10T06:59:15.182Z,16.14
2022-09-10T07:01:47.279Z,16.10
2022-09-10T07:04:14.763Z,16.11
2022-09-10T07:06:41.378Z,16.13
2022-09-10T07:09:10.529Z,16.10
2022-09-10T07:11:45.449Z,16.09
2022-09-10T07:14:13.760Z,16.11
2022-09-10T07:16:41.593Z,16.11
2022-09-10T07:19:08.292Z,16.12
2022-09-10T07:21:39.406Z,16.17
2022-09-10T07:24:10.210Z,16.16
2022-09-10T07:26:36.628Z,16.17
2022-09-10T07:29:03.508Z,16.21
2022-09-10T07:31:31.301Z,16.23
2022-09-10T07:34:01.193Z,16.29
2022-09-10T07:36:28.230Z,16.35
2022-09-10T07:39:01.816Z,16.36
2022-09-10T07:41:31.785Z,16.43
2022-09-10T07:43:59.631Z,16.52
2022-09-10T07:46:30.988Z,16.60
2022-09-10T07:48:58.679Z,16.57
2022-09-10T07:51:26.342Z,16.64
2022-09-10T07:53:55.285Z,16.70
2022-09-10T07:56:25.707Z,16.73
2022-09-10T07:58:53.731Z,16.73
2022-09-10T08:01:20.770Z,16.73
2022-09-10T08:03:47.816Z,16.74
2022-09-10T08:06:17.382Z,16.74
2022-09-10T08:08:45.608Z,16.76
2022-09-10T08:11:16.536Z,16.78
2022-09-10T08:13:45.493Z,16.67
2022-09-10T08:16:15.017Z,16.70
2022-09-10T08:18:41.903Z,16.72
2022-09-10T08:21:08.804Z,16.78
2022-09-10T08:23:35.532Z,16.78
2022-09-10T08:26:04.366Z,16.78
2022-09-10T08:28:30.712Z,16.82
2022-09-10T08:30:58.087Z,16.83
2022-09-10T08:33:25.527Z,16.87
2022-09-10T08:35:52.752Z,16.87
2022-09-10T08:38:19.056Z,16.93
2022-09-10T08:40:45.379Z,16.96
2022-09-10T08:43:12.765Z,16.92
2022-09-10T08:45:39.997Z,16.95
2022-09-10T08:48:13.134Z,16.97
2022-09-10T08:50:59.333Z,16.97
2022-09-10T08:53:36.321Z,16.96
2022-09-10T08:56:05.182Z,16.89
2022-09-10T08:58:49.007Z,16.96
2022-09-10T09:01:20.262Z,16.93
2022-09-10T09:03:47.796Z,16.91
2022-09-10T09:06:24.937Z,16.87
2022-09-10T09:08:52.175Z,16.84
2022-09-10T09:11:37.184Z,16.89
2022-09-10T09:14:10.222Z,16.89
2022-09-10T09:16:42.450Z,16.89
2022-09-10T09:19:32.029Z,16.89
2022-09-10T09:22:03.598Z,16.95
2022-09-10T09:24:46.135Z,16.95
2022-09-10T09:27:18.215Z,16.91
2022-09-10T09:29:45.663Z,16.99
2022-09-10T09:32:16.133Z,16.97
2022-09-10T09:34:42.540Z,16.98
2022-09-10T09:37:17.722Z,17.06
2022-09-10T09:39:53.680Z,17.11
2022-09-10T09:42:21.068Z,17.27
2022-09-10T09:44:57.019Z,17.43
2022-09-10T09:47:23.719Z,17.52
2022-09-10T09:49:50.878Z,17.53
2022-09-10T09:52:24.813Z,17.52
2022-09-10T09:55:13.713Z,17.48
2022-09-10T09:57:42.801Z,17.30
2022-09-10T10:00:33.272Z,17.29
2022-09-10T10:03:12.988Z,17.26
2022-09-10T10:05:39.336Z,17.27
2022-09-10T10:08:05.993Z,17.32
2022-09-10T10:10:32.452Z,17.35
2022-09-10T10:12:58.756Z,17.42
2022-09-10T10:15:38.597Z,17.50
2022-09-10T10:18:24.140Z,17.50
2022-09-10T10:21:10.197Z,17.52
2022-09-10T10:23:37.417Z,17.63
2022-09-10T10:26:15.960Z,17.80
2022-09-10T10:28:45.379Z,17.87
2022-09-10T10:31:12.169Z,18.07
2022-09-10T10:33:41.483Z,18.47
2022-09-10T10:36:46.377Z,18.90
2022-09-10T10:39:12.655Z,19.37
2022-09-10T10:41:50.791Z,19.65
2022-09-10T10:44:47.952Z,19.62
2022-09-10T10:47:23.221Z,19.43
2022-09-10T10:50:09.838Z,19.24
2022-09-10T10:52:45.764Z,19.08
2022-09-10T10:55:17.935Z,18.95
2022-09-10T10:58:02.830Z,18.77
2022-09-10T11:00:31.851Z,18.67
2022-09-10T11:03:14.399Z,18.58
2022-09-10T11:05:49.889Z,18.52
2022-09-10T11:08:36.476Z,18.51
2022-09-10T11:11:08.941Z,18.54
2022-09-10T11:13:44.664Z,18.56
2022-09-10T11:16:21.602Z,18.64
2022-09-10T11:18:54.019Z,18.68
2022-09-10T11:21:25.535Z,18.73
2022-09-10T11:23:56.862Z,18.84
2022-09-10T11:26:27.288Z,19.05
2022-09-10T11:29:13.168Z,19.16
2022-09-10T11:31:42.600Z,19.18
2022-09-10T11:34:08.865Z,19.12
2022-09-10T11:36:42.209Z,19.04
2022-09-10T11:39:20.408Z,18.99
2022-09-10T11:41:48.528Z,18.91
2022-09-10T11:44:36.445Z,18.84
2022-09-10T11:47:03.081Z,18.76
2022-09-10T11:49:48.333Z,18.75
2022-09-10T11:52:15.560Z,18.74
2022-09-10T11:54:42.245Z,18.73
2022-09-10T11:57:27.282Z,18.73
2022-09-10T11:59:54.093Z,18.73
2022-09-10T12:02:20.639Z,18.72
2022-09-10T12:05:03.828Z,18.72
2022-09-10T12:07:39.445Z,18.76
2022-09-10T12:10:19.654Z,18.88
2022-09-10T12:12:49.704Z,19.05
2022-09-10T12:15:20.782Z,19.38
2022-09-10T12:18:11.154Z,19.47
2022-09-10T12:20:48.826Z,19.53
2022-09-10T12:23:18.216Z,19.59
2022-09-10T12:25:44.906Z,19.53
2022-09-10T12:28:31.102Z,19.36
2022-09-10T12:31:02.519Z,19.24
2022-09-10T12:33:30.237Z,19.11
2022-09-10T12:35:57.166Z,19.00
2022-09-10T12:38:42.240Z,18.92
2022-09-10T12:41:09.753Z,18.85
2022-09-10T12:43:36.009Z,18.89
2022-09-10T12:46:17.350Z,18.90
2022-09-10T12:48:48.817Z,18.89
2022-09-10T12:51:18.020Z,18.95
2022-09-10T12:53:52.678Z,19.02
2022-09-10T12:56:32.527Z,19.06
2022-09-10T12:59:10.792Z,19.18
2022-09-10T13:01:48.939Z,19.19
2022-09-10T13:04:20.668Z,19.14
2022-09-10T13:06:47.845Z,19.07
2022-09-10T13:09:19.650Z,18.99
2022-09-10T13:11:49.485Z,18.84
2022-09-10T13:14:19.056Z,18.77
2022-09-10T13:16:45.390Z,18.66
2022-09-10T13:19:14.471Z,18.62
2022-09-10T13:21:40.778Z,18.53
2022-09-10T13:24:28.126Z,18.50
2022-09-10T13:27:10.131Z,18.50
2022-09-10T13:29:38.642Z,18.46
2022-09-10T13:32:14.058Z,18.43
2022-09-10T13:34:55.654Z,18.37
2022-09-10T13:37:34.409Z,18.27
2022-09-10T13:40:25.616Z,18.13
2022-09-10T13:42:58.147Z,18.01
2022-09-10T13:45:29.014Z,17.92
2022-09-10T13:48:02.929Z,17.86
2022-09-10T13:50:39.541Z,17.77
2022-09-10T13:53:08.809Z,17.70
2022-09-10T13:55:35.421Z,17.69
2022-09-10T13:58:09.195Z,17.46
2022-09-10T14:00:41.141Z,17.42
2022-09-10T14:03:14.924Z,17.37
2022-09-10T14:05:50.083Z,17.36
2022-09-10T14:08:20.274Z,17.35
2022-09-10T14:10:49.399Z,17.35
2022-09-10T14:13:22.398Z,17.41
2022-09-10T14:15:49.756Z,17.38
2022-09-10T14:18:16.183Z,17.37
2022-09-10T14:20:42.703Z,17.42
2022-09-10T14:23:16.171Z,17.54
2022-09-10T14:25:43.877Z,17.59
2022-09-10T14:28:16.313Z,17.66
2022-09-10T14:30:44.014Z,17.69
2022-09-10T14:33:20.267Z,17.70
2022-09-10T14:35:49.268Z,17.68
2022-09-10T14:38:33.717Z,17.68
2022-09-10T14:41:06.723Z,17.70
2022-09-10T14:43:36.393Z,17.70
2022-09-10T14:46:03.475Z,17.73
2022-09-10T14:48:36.959Z,17.74
2022-09-10T14:51:09.554Z,17.69
2022-09-10T14:53:35.885Z,17.66
2022-09-10T14:56:02.463Z,17.70
2022-09-10T14:58:29.794Z,17.69
2022-09-10T15:00:56.183Z,17.66
2022-09-10T15:03:22.465Z,17.70
2022-09-10T15:05:48.761Z,17.65
2022-09-10T15:08:15.026Z,17.72
2022-09-10T15:10:41.296Z,17.74
2022-09-10T15:13:14.181Z,17.75
2022-09-10T15:15:40.873Z,17.67
2022-09-10T15:18:14.289Z,17.63
2022-09-10T15:20:40.595Z,17.67
2022-09-10T16:02:52.970Z,16.91
2022-09-10T16:05:21.062Z,17.00
2022-09-10T16:07:49.525Z,17.05
2022-09-10T16:10:16.522Z,17.09
2022-09-10T16:12:44.195Z,17.13
2022-09-10T16:15:10.765Z,17.19
2022-09-10T16:17:37.230Z,17.26
2022-09-10T16:20:03.998Z,17.31
2022-09-10T16:22:30.654Z,17.33
2022-09-10T16:24:56.977Z,17.36
2022-09-10T16:27:24.023Z,17.43
2022-09-10T16:29:50.526Z,17.48
2022-09-10T16:32:16.955Z,17.49
2022-09-10T16:34:43.384Z,17.50
2022-09-10T16:37:09.809Z,17.50
2022-09-10T16:39:36.206Z,17.50
2022-09-10T16:42:02.652Z,17.51
2022-09-10T16:44:29.020Z,17.50
2022-09-10T16:46:57.611Z,17.52
2022-09-10T16:49:23.969Z,17.50
2022-09-10T16:51:50.671Z,17.52
2022-09-10T16:54:19.897Z,17.50
2022-09-10T16:56:48.666Z,17.50
2022-09-10T16:59:21.270Z,17.52
2022-09-10T17:01:48.498Z,17.49
2022-09-10T17:04:20.482Z,17.53
2022-09-10T17:06:48.815Z,17.49
2022-09-10T17:09:15.441Z,17.51
2022-09-10T17:11:42.280Z,17.51
2022-09-10T17:14:08.711Z,17.47
2022-09-10T17:16:37.661Z,17.46
2022-09-10T17:19:08.569Z,17.45
2022-09-10T17:21:36.751Z,17.39
2022-09-10T17:24:05.351Z,17.43
2022-09-10T17:26:33.160Z,17.38
2022-09-10T17:29:02.175Z,17.38
2022-09-10T17:31:29.539Z,17.38
2022-09-10T17:33:57.244Z,17.38
2022-09-10T17:36:25.285Z,17.37
2022-09-10T17:38:53.580Z,17.34
2022-09-10T17:41:20.928Z,17.29
2022-09-10T17:43:47.421Z,17.32
2022-09-10T17:46:15.881Z,17.30
2022-09-10T17:48:45.830Z,17.29
2022-09-10T17:51:17.073Z,17.32
2022-09-10T17:53:43.833Z,17.24
2022-09-10T17:56:13.222Z,17.28
2022-09-10T17:58:39.926Z,17.26
2022-09-10T18:01:09.403Z,17.20
2022-09-10T18:03:36.357Z,17.21
2022-09-10T18:06:11.224Z,17.16
2022-09-10T18:08:38.692Z,17.19
2022-09-10T18:11:06.984Z,17.14
2022-09-10T18:13:35.008Z,17.06
2022-09-10T18:16:09.891Z,17.04
2022-09-10T18:18:37.366Z,17.00
2022-09-10T18:21:31.800Z,17.04
2022-09-10T18:24:03.912Z,17.04
2022-09-10T18:26:37.133Z,16.92
2022-09-10T18:29:07.779Z,16.95
2022-09-10T18:31:36.916Z,16.96
2022-09-10T18:34:05.500Z,16.96
2022-09-10T18:36:32.153Z,16.88
2022-09-10T18:39:01.960Z,16.88
2022-09-10T18:41:31.099Z,16.92
2022-09-10T18:44:00.664Z,16.89
2022-09-10T18:46:28.985Z,16.89
2022-09-10T18:48:55.889Z,16.80
2022-09-10T18:51:24.632Z,16.77
2022-09-10T18:53:56.174Z,16.80
2022-09-10T18:56:24.331Z,16.73
2022-09-10T18:58:53.448Z,16.70
2022-09-10T19:01:20.228Z,16.68
2022-09-10T19:03:48.442Z,16.74
2022-09-10T19:06:20.621Z,16.71
2022-09-10T19:08:53.290Z,16.73
2022-09-10T19:11:21.627Z,16.73
2022-09-10T19:13:54.136Z,16.70
2022-09-10T19:16:22.974Z,16.76
2022-09-10T19:18:54.674Z,16.71
2022-09-10T19:21:21.942Z,16.66
2022-09-10T19:23:49.956Z,16.62
2022-09-10T19:26:18.110Z,16.70
2022-09-10T19:28:45.291Z,16.70
2022-09-10T19:31:19.447Z,16.70
2022-09-10T19:33:47.117Z,16.65
2022-09-10T19:36:17.583Z,16.59
2022-09-10T19:38:46.788Z,16.64
2022-09-10T19:41:18.932Z,16.52
2022-09-10T19:43:50.447Z,16.57
2022-09-10T19:46:19.025Z,16.59
2022-09-10T19:48:49.101Z,16.57
2022-09-10T19:51:20.038Z,16.64
2022-09-10T19:53:47.607Z,16.57
2022-09-10T19:56:20.265Z,16.62
2022-09-10T19:58:52.213Z,16.55
2022-09-10T20:01:20.081Z,16.57
2022-09-10T20:03:48.097Z,16.57
2022-09-10T20:06:18.310Z,16.55
2022-09-10T20:08:47.139Z,16.52
2022-09-10T20:11:19.807Z,16.53
2022-09-10T20:13:46.174Z,16.52
2022-09-10T20:16:13.998Z,16.57
2022-09-10T20:18:40.551Z,16.56
2022-09-10T20:21:14.403Z,16.55
2022-09-10T20:23:46.409Z,16.48
2022-09-10T20:26:22.552Z,16.39
2022-09-10T20:28:57.413Z,16.49
2022-09-10T20:31:27.029Z,16.51
2022-09-10T20:33:58.883Z,16.46
2022-09-10T20:36:27.261Z,16.47
2022-09-10T20:38:54.825Z,16.50
2022-09-10T20:41:23.263Z,16.49
2022-09-10T20:43:53.487Z,16.38
2022-09-10T20:46:22.120Z,16.44
2022-09-10T20:48:50.094Z,16.39
2022-09-10T20:51:17.787Z,16.39
2022-09-10T20:53:45.040Z,16.40
2022-09-10T20:56:14.094Z,16.39
2022-09-10T20:58:41.560Z,16.34
2022-09-10T21:01:18.916Z,16.37
2022-09-10T21:03:47.290Z,16.30
2022-09-10T21:06:16.001Z,16.27
2022-09-10T21:08:42.806Z,16.33
2022-09-10T21:11:12.217Z,16.37
2022-09-10T21:13:43.537Z,16.36
2022-09-10T21:16:11.799Z,16.37
2022-09-10T21:18:41.042Z,16.39
2022-09-10T21:21:12.836Z,16.39
2022-09-10T21:23:49.862Z,16.34
2022-09-10T21:26:20.571Z,16.35
2022-09-10T21:28:47.895Z,16.41
2022-09-10T21:31:14.603Z,16.36
2022-09-10T21:33:42.571Z,16.30
2022-09-10T21:36:17.237Z,16.22
2022-09-10T21:38:47.537Z,16.33
2022-09-10T21:41:15.728Z,16.30
2022-09-10T21:43:44.554Z,16.36
2022-09-10T21:46:12.109Z,16.29
2022-09-10T21:48:39.846Z,16.35
2022-09-10T21:51:11.520Z,16.35
2022-09-10T21:53:37.889Z,16.30
2022-09-10T21:56:04.402Z,16.30
2022-09-10T21:58:34.075Z,16.26
2022-09-10T22:01:01.084Z,16.31
2022-09-10T22:03:29.042Z,16.29
2022-09-10T22:06:08.808Z,16.35
2022-09-10T22:08:36.630Z,16.37
2022-09-10T22:11:14.158Z,16.35
2022-09-10T22:13:44.454Z,16.37
2022-09-10T22:16:14.800Z,16.38
2022-09-10T22:18:41.998Z,16.39
2022-09-10T22:21:09.472Z,16.35
2022-09-10T22:23:38.099Z,16.29
2022-09-10T22:26:09.472Z,16.29
2022-09-10T22:28:36.789Z,16.23
2022-09-10T22:31:10.528Z,16.26
2022-09-10T22:33:39.225Z,16.29
2022-09-10T22:36:31.221Z,16.19
2022-09-10T22:39:03.466Z,16.22
2022-09-10T22:41:31.689Z,16.22
2022-09-10T22:43:58.377Z,16.23
2022-09-10T22:46:24.880Z,16.31
2022-09-10T22:48:51.268Z,16.38
2022-09-10T22:51:19.627Z,16.26
2022-09-10T22:53:46.724Z,16.20
2022-09-10T22:56:14.225Z,16.16
2022-09-10T22:58:41.060Z,16.24
2022-09-10T23:01:16.170Z,16.23
2022-09-10T23:03:44.061Z,16.17
2022-09-10T23:06:12.042Z,16.27
2022-09-10T23:08:39.720Z,16.23
2022-09-10T23:11:15.099Z,16.22
2022-09-10T23:13:42.572Z,16.22
2022-09-10T23:16:17.988Z,16.23
2022-09-10T23:18:50.423Z,16.21
2022-09-10T23:21:18.424Z,16.19
2022-09-10T23:23:46.834Z,16.17
2022-09-10T23:26:14.423Z,16.22
2022-09-10T23:28:42.212Z,16.21
2022-09-10T23:31:13.508Z,16.19
2022-09-10T23:33:41.140Z,16.23
2022-09-10T23:36:07.714Z,16.23
2022-09-10T23:38:35.631Z,16.18
2022-09-10T23:41:02.826Z,16.17
2022-09-10T23:43:29.649Z,16.15
2022-09-10T23:45:56.057Z,16.14
2022-09-10T23:48:23.874Z,16.19
2022-09-10T23:50:52.114Z,16.21
2022-09-10T23:53:19.464Z,16.28
2022-09-10T23:55:46.100Z,16.27
2022-09-10T23:58:12.938Z,16.31
